Главная страница
METAR-TAF:

METAR-TAF

Аэропорты :

Тулча, Румыния

широта: 45-11N, долгота: 028-49E, высота над уровнем моря: 4 м

Текущие метеонаблюдения

Эта сводка был подготовлена 10 минут назад, в 03:00 UTC
Ветер 12 Узел от северно-северо-западный
Температура 22°C
Влажность 73%
Давление 1012 hPa
Видимость: 9000 м

METAR: LRTC 170300Z AUTO 34012KT 9000 FEW110/// 22/17 Q1012

Время: 06:10 (03:10 UTC)

Прогноз

Эта сводка был подготовлена 13 часа и 10 минут назад, в 14:00 UTC
Прогноз действительный с 16-го 15 UTC до 16-го 24 UTC
Ветер 10 Узел от северный
Видимость 10 км и более
Нет облачности ниже 1500 м, и нет кучево-дождевой облачности
изменения
С 16-го 16 UTC до 16-го 18 UTC
Ветер 4 Узел переменных направлений

TAF: LRTC 161400Z 1615/1624 01010KT CAVOK BECMG 1616/1618 VRB04KT

Метеонаблюдения и прогнозы для более 4000 аэропортов (сводки METAR и TAF).

Имеющиеся станции представлены на карте желтыми и красными точками.

Чтобы увидеть название станции, наведите на нее мышь.

Затем щелкните, чтобы увидеть метеонаблюдения и метеопрогнозы.

Управление картой: чтобы увеличить масштаб, щелкните зеленые кнопки с черным крестиком; чтобы уменьшить масштаб, щелкните зеленую кнопку с тире; для просмотра соседних карт щелкайте зеленые стрелки.


METAR-TAF: